sensor_id;sensor_type;location;lat;lon;timestamp;temperature;humidity
37678;DHT22;23517;50.390;8.616;2024-02-23T00:01:24;8.10;99.90
37678;DHT22;23517;50.390;8.616;2024-02-23T00:03:51;8.10;99.90
37678;DHT22;23517;50.390;8.616;2024-02-23T00:06:18;8.10;99.90
37678;DHT22;23517;50.390;8.616;2024-02-23T00:08:45;8.10;99.90
37678;DHT22;23517;50.390;8.616;2024-02-23T00:11:11;8.20;99.90
37678;DHT22;23517;50.390;8.616;2024-02-23T00:13:38;8.20;99.90
37678;DHT22;23517;50.390;8.616;2024-02-23T00:16:05;8.10;99.90
37678;DHT22;23517;50.390;8.616;2024-02-23T00:18:32;8.10;99.90
37678;DHT22;23517;50.390;8.616;2024-02-23T00:20:58;8.20;99.90
37678;DHT22;23517;50.390;8.616;2024-02-23T00:23:25;8.10;99.90
37678;DHT22;23517;50.390;8.616;2024-02-23T00:25:52;8.10;99.90
37678;DHT22;23517;50.390;8.616;2024-02-23T00:28:19;8.20;99.90
37678;DHT22;23517;50.390;8.616;2024-02-23T00:30:45;8.10;99.90
37678;DHT22;23517;50.390;8.616;2024-02-23T00:33:12;8.10;99.90
37678;DHT22;23517;50.390;8.616;2024-02-23T00:35:39;8.00;99.90
37678;DHT22;23517;50.390;8.616;2024-02-23T00:38:06;7.90;99.90
37678;DHT22;23517;50.390;8.616;2024-02-23T00:40:34;7.90;99.90
37678;DHT22;23517;50.390;8.616;2024-02-23T00:43:00;7.80;99.90
37678;DHT22;23517;50.390;8.616;2024-02-23T00:45:27;7.70;99.90
37678;DHT22;23517;50.390;8.616;2024-02-23T00:47:55;7.70;99.90
37678;DHT22;23517;50.390;8.616;2024-02-23T00:50:23;7.70;99.90
37678;DHT22;23517;50.390;8.616;2024-02-23T00:52:53;7.80;99.90
37678;DHT22;23517;50.390;8.616;2024-02-23T00:55:20;7.70;99.90
37678;DHT22;23517;50.390;8.616;2024-02-23T00:57:47;7.70;99.90
37678;DHT22;23517;50.390;8.616;2024-02-23T01:00:13;7.60;99.90
37678;DHT22;23517;50.390;8.616;2024-02-23T01:02:41;7.50;99.90
37678;DHT22;23517;50.390;8.616;2024-02-23T01:05:08;7.40;99.90
37678;DHT22;23517;50.390;8.616;2024-02-23T01:07:35;7.40;99.90
37678;DHT22;23517;50.390;8.616;2024-02-23T01:10:02;7.40;99.90
37678;DHT22;23517;50.390;8.616;2024-02-23T01:12:30;7.20;99.90
37678;DHT22;23517;50.390;8.616;2024-02-23T01:14:56;7.10;99.90
37678;DHT22;23517;50.390;8.616;2024-02-23T01:17:25;6.90;99.90
37678;DHT22;23517;50.390;8.616;2024-02-23T01:19:52;6.80;99.90
37678;DHT22;23517;50.390;8.616;2024-02-23T01:22:18;6.70;99.90
37678;DHT22;23517;50.390;8.616;2024-02-23T01:24:45;6.60;99.90
37678;DHT22;23517;50.390;8.616;2024-02-23T01:27:12;6.50;99.90
37678;DHT22;23517;50.390;8.616;2024-02-23T01:29:38;6.40;99.90
37678;DHT22;23517;50.390;8.616;2024-02-23T01:32:06;6.40;99.90
37678;DHT22;23517;50.390;8.616;2024-02-23T01:34:32;6.40;99.90
37678;DHT22;23517;50.390;8.616;2024-02-23T01:37:00;6.30;99.90
37678;DHT22;23517;50.390;8.616;2024-02-23T01:39:26;6.30;99.90
37678;DHT22;23517;50.390;8.616;2024-02-23T01:41:53;6.20;99.90
37678;DHT22;23517;50.390;8.616;2024-02-23T01:44:21;6.10;99.90
37678;DHT22;23517;50.390;8.616;2024-02-23T01:46:48;6.10;99.90
37678;DHT22;23517;50.390;8.616;2024-02-23T01:49:15;6.10;99.90
37678;DHT22;23517;50.390;8.616;2024-02-23T01:51:43;6.00;99.90
37678;DHT22;23517;50.390;8.616;2024-02-23T01:54:10;6.00;99.90
37678;DHT22;23517;50.390;8.616;2024-02-23T01:56:37;6.00;99.90
37678;DHT22;23517;50.390;8.616;2024-02-23T01:59:06;6.00;99.90
37678;DHT22;23517;50.390;8.616;2024-02-23T02:01:32;6.00;99.90
37678;DHT22;23517;50.390;8.616;2024-02-23T02:03:59;6.10;99.90
37678;DHT22;23517;50.390;8.616;2024-02-23T02:06:26;6.00;99.90
37678;DHT22;23517;50.390;8.616;2024-02-23T02:08:53;6.00;99.90
37678;DHT22;23517;50.390;8.616;2024-02-23T02:11:20;5.90;99.90
37678;DHT22;23517;50.390;8.616;2024-02-23T02:13:47;5.90;99.90
37678;DHT22;23517;50.390;8.616;2024-02-23T02:16:14;5.90;99.90
37678;DHT22;23517;50.390;8.616;2024-02-23T02:18:41;5.90;99.90
37678;DHT22;23517;50.390;8.616;2024-02-23T02:21:07;5.90;99.90
37678;DHT22;23517;50.390;8.616;2024-02-23T02:23:34;5.90;99.90
37678;DHT22;23517;50.390;8.616;2024-02-23T02:26:01;5.80;99.90
37678;DHT22;23517;50.390;8.616;2024-02-23T02:28:28;5.80;99.90
37678;DHT22;23517;50.390;8.616;2024-02-23T02:30:55;5.70;99.90
37678;DHT22;23517;50.390;8.616;2024-02-23T02:33:22;5.70;99.90
37678;DHT22;23517;50.390;8.616;2024-02-23T02:35:50;5.60;99.90
37678;DHT22;23517;50.390;8.616;2024-02-23T02:38:16;5.60;99.90
37678;DHT22;23517;50.390;8.616;2024-02-23T02:40:43;5.50;99.90
37678;DHT22;23517;50.390;8.616;2024-02-23T02:43:10;5.50;99.90
37678;DHT22;23517;50.390;8.616;2024-02-23T02:45:37;5.50;99.90
37678;DHT22;23517;50.390;8.616;2024-02-23T02:48:04;5.40;99.90
37678;DHT22;23517;50.390;8.616;2024-02-23T02:50:31;5.40;99.90
37678;DHT22;23517;50.390;8.616;2024-02-23T02:52:58;5.40;99.90
37678;DHT22;23517;50.390;8.616;2024-02-23T02:55:25;5.30;99.90
37678;DHT22;23517;50.390;8.616;2024-02-23T02:57:52;5.30;99.90
37678;DHT22;23517;50.390;8.616;2024-02-23T03:00:18;5.30;99.90
37678;DHT22;23517;50.390;8.616;2024-02-23T03:02:45;5.30;99.90
37678;DHT22;23517;50.390;8.616;2024-02-23T03:05:12;5.30;99.90
37678;DHT22;23517;50.390;8.616;2024-02-23T03:07:38;5.20;99.90
37678;DHT22;23517;50.390;8.616;2024-02-23T03:10:06;5.20;99.90
37678;DHT22;23517;50.390;8.616;2024-02-23T03:12:33;5.30;99.90
37678;DHT22;23517;50.390;8.616;2024-02-23T03:15:01;5.20;99.90
37678;DHT22;23517;50.390;8.616;2024-02-23T03:17:31;5.20;99.90
37678;DHT22;23517;50.390;8.616;2024-02-23T03:19:59;5.10;99.90
37678;DHT22;23517;50.390;8.616;2024-02-23T03:22:26;5.20;99.90
37678;DHT22;23517;50.390;8.616;2024-02-23T03:24:53;5.20;99.90
37678;DHT22;23517;50.390;8.616;2024-02-23T03:27:26;5.20;99.90
37678;DHT22;23517;50.390;8.616;2024-02-23T03:29:54;5.10;99.90
37678;DHT22;23517;50.390;8.616;2024-02-23T03:32:21;5.10;99.90
37678;DHT22;23517;50.390;8.616;2024-02-23T03:34:48;5.10;99.90
37678;DHT22;23517;50.390;8.616;2024-02-23T03:37:15;5.10;99.90
37678;DHT22;23517;50.390;8.616;2024-02-23T03:39:41;5.10;99.90
37678;DHT22;23517;50.390;8.616;2024-02-23T03:42:08;5.00;99.90
37678;DHT22;23517;50.390;8.616;2024-02-23T03:44:35;5.00;99.90
37678;DHT22;23517;50.390;8.616;2024-02-23T03:47:02;5.00;99.90
37678;DHT22;23517;50.390;8.616;2024-02-23T03:49:32;4.90;99.90
37678;DHT22;23517;50.390;8.616;2024-02-23T03:51:58;4.90;99.90
37678;DHT22;23517;50.390;8.616;2024-02-23T03:54:25;4.90;99.90
37678;DHT22;23517;50.390;8.616;2024-02-23T03:56:52;4.90;99.90
37678;DHT22;23517;50.390;8.616;2024-02-23T03:59:18;4.90;99.90
37678;DHT22;23517;50.390;8.616;2024-02-23T04:01:45;4.90;99.90
37678;DHT22;23517;50.390;8.616;2024-02-23T04:04:12;4.90;99.90
37678;DHT22;23517;50.390;8.616;2024-02-23T04:06:39;4.90;99.90
37678;DHT22;23517;50.390;8.616;2024-02-23T04:09:06;4.80;99.90
37678;DHT22;23517;50.390;8.616;2024-02-23T04:11:33;4.80;99.90
37678;DHT22;23517;50.390;8.616;2024-02-23T04:14:00;4.80;99.90
37678;DHT22;23517;50.390;8.616;2024-02-23T04:16:28;4.80;99.90
37678;DHT22;23517;50.390;8.616;2024-02-23T04:18:54;4.80;99.90
37678;DHT22;23517;50.390;8.616;2024-02-23T04:21:22;4.80;99.90
37678;DHT22;23517;50.390;8.616;2024-02-23T04:23:50;4.80;99.90
37678;DHT22;23517;50.390;8.616;2024-02-23T04:26:17;4.80;99.90
37678;DHT22;23517;50.390;8.616;2024-02-23T04:28:43;4.80;99.90
37678;DHT22;23517;50.390;8.616;2024-02-23T04:31:10;4.80;99.90
37678;DHT22;23517;50.390;8.616;2024-02-23T04:33:38;4.70;99.90
37678;DHT22;23517;50.390;8.616;2024-02-23T04:36:05;4.70;99.90
37678;DHT22;23517;50.390;8.616;2024-02-23T04:38:34;4.70;99.90
37678;DHT22;23517;50.390;8.616;2024-02-23T04:41:04;4.70;99.90
37678;DHT22;23517;50.390;8.616;2024-02-23T04:43:31;4.70;99.90
37678;DHT22;23517;50.390;8.616;2024-02-23T04:45:58;4.60;99.90
37678;DHT22;23517;50.390;8.616;2024-02-23T04:48:25;4.70;99.90
37678;DHT22;23517;50.390;8.616;2024-02-23T04:50:52;4.60;99.90
37678;DHT22;23517;50.390;8.616;2024-02-23T04:53:18;4.60;99.90
37678;DHT22;23517;50.390;8.616;2024-02-23T04:55:46;4.50;99.90
37678;DHT22;23517;50.390;8.616;2024-02-23T04:58:12;4.60;99.90
37678;DHT22;23517;50.390;8.616;2024-02-23T05:00:39;4.50;99.90
37678;DHT22;23517;50.390;8.616;2024-02-23T05:03:06;4.60;99.90
37678;DHT22;23517;50.390;8.616;2024-02-23T05:05:37;4.70;99.90
37678;DHT22;23517;50.390;8.616;2024-02-23T05:08:04;4.70;99.90
37678;DHT22;23517;50.390;8.616;2024-02-23T05:10:31;4.80;99.90
37678;DHT22;23517;50.390;8.616;2024-02-23T05:12:58;4.90;99.90
37678;DHT22;23517;50.390;8.616;2024-02-23T05:15:25;5.00;99.90
37678;DHT22;23517;50.390;8.616;2024-02-23T05:17:52;5.10;99.90
37678;DHT22;23517;50.390;8.616;2024-02-23T05:20:18;5.20;99.90
37678;DHT22;23517;50.390;8.616;2024-02-23T05:22:45;5.30;99.90
37678;DHT22;23517;50.390;8.616;2024-02-23T05:25:12;5.20;99.90
37678;DHT22;23517;50.390;8.616;2024-02-23T05:27:38;5.20;99.90
37678;DHT22;23517;50.390;8.616;2024-02-23T05:30:06;5.20;99.90
37678;DHT22;23517;50.390;8.616;2024-02-23T05:32:33;5.20;99.90
37678;DHT22;23517;50.390;8.616;2024-02-23T05:35:00;5.20;99.90
37678;DHT22;23517;50.390;8.616;2024-02-23T05:37:27;5.20;99.90
37678;DHT22;23517;50.390;8.616;2024-02-23T05:39:53;5.20;99.90
37678;DHT22;23517;50.390;8.616;2024-02-23T05:42:20;5.10;99.90
37678;DHT22;23517;50.390;8.616;2024-02-23T05:44:47;5.00;99.90
37678;DHT22;23517;50.390;8.616;2024-02-23T05:47:15;4.90;99.90
37678;DHT22;23517;50.390;8.616;2024-02-23T05:49:41;4.90;99.90
37678;DHT22;23517;50.390;8.616;2024-02-23T05:52:08;4.80;99.90
37678;DHT22;23517;50.390;8.616;2024-02-23T05:54:36;4.80;99.90
37678;DHT22;23517;50.390;8.616;2024-02-23T05:57:03;4.80;99.90
37678;DHT22;23517;50.390;8.616;2024-02-23T05:59:29;4.80;99.90
37678;DHT22;23517;50.390;8.616;2024-02-23T06:01:56;4.80;99.90
37678;DHT22;23517;50.390;8.616;2024-02-23T06:04:24;4.80;99.90
37678;DHT22;23517;50.390;8.616;2024-02-23T06:06:50;4.80;99.90
37678;DHT22;23517;50.390;8.616;2024-02-23T06:09:17;4.80;99.90
37678;DHT22;23517;50.390;8.616;2024-02-23T06:11:45;4.70;99.90
37678;DHT22;23517;50.390;8.616;2024-02-23T06:14:13;4.70;99.90
37678;DHT22;23517;50.390;8.616;2024-02-23T06:16:40;4.70;99.90
37678;DHT22;23517;50.390;8.616;2024-02-23T06:19:07;4.70;99.90
37678;DHT22;23517;50.390;8.616;2024-02-23T06:21:34;4.70;99.90
37678;DHT22;23517;50.390;8.616;2024-02-23T06:24:02;4.80;99.90
37678;DHT22;23517;50.390;8.616;2024-02-23T06:26:29;4.70;99.90
37678;DHT22;23517;50.390;8.616;2024-02-23T06:28:56;4.60;1.00
37678;DHT22;23517;50.390;8.616;2024-02-23T06:31:23;4.50;1.00
37678;DHT22;23517;50.390;8.616;2024-02-23T06:33:50;4.50;1.00
37678;DHT22;23517;50.390;8.616;2024-02-23T06:36:19;4.40;1.00
37678;DHT22;23517;50.390;8.616;2024-02-23T06:38:46;4.40;1.00
37678;DHT22;23517;50.390;8.616;2024-02-23T06:41:14;4.40;1.00
37678;DHT22;23517;50.390;8.616;2024-02-23T06:43:41;4.30;1.00
37678;DHT22;23517;50.390;8.616;2024-02-23T06:46:08;4.30;1.00
37678;DHT22;23517;50.390;8.616;2024-02-23T06:48:36;4.30;1.00
37678;DHT22;23517;50.390;8.616;2024-02-23T06:51:05;4.50;1.00
37678;DHT22;23517;50.390;8.616;2024-02-23T06:53:35;4.50;1.00
37678;DHT22;23517;50.390;8.616;2024-02-23T06:56:02;4.60;1.00
37678;DHT22;23517;50.390;8.616;2024-02-23T06:58:29;4.70;1.00
37678;DHT22;23517;50.390;8.616;2024-02-23T07:00:56;4.80;1.00
37678;DHT22;23517;50.390;8.616;2024-02-23T07:03:23;4.80;1.00
37678;DHT22;23517;50.390;8.616;2024-02-23T07:05:49;4.90;1.00
37678;DHT22;23517;50.390;8.616;2024-02-23T07:08:17;5.00;1.00
37678;DHT22;23517;50.390;8.616;2024-02-23T07:10:44;5.00;1.00
37678;DHT22;23517;50.390;8.616;2024-02-23T07:13:11;5.10;1.00
37678;DHT22;23517;50.390;8.616;2024-02-23T07:15:38;5.10;1.00
37678;DHT22;23517;50.390;8.616;2024-02-23T07:18:05;5.20;1.00
37678;DHT22;23517;50.390;8.616;2024-02-23T07:20:32;5.20;1.00
37678;DHT22;23517;50.390;8.616;2024-02-23T07:22:58;5.30;1.00
37678;DHT22;23517;50.390;8.616;2024-02-23T07:25:25;5.40;1.00
37678;DHT22;23517;50.390;8.616;2024-02-23T07:27:52;5.50;1.00
37678;DHT22;23517;50.390;8.616;2024-02-23T07:30:19;5.50;1.00
37678;DHT22;23517;50.390;8.616;2024-02-23T07:32:46;5.60;99.90
37678;DHT22;23517;50.390;8.616;2024-02-23T07:35:19;5.60;99.90
37678;DHT22;23517;50.390;8.616;2024-02-23T07:37:46;5.60;99.90
37678;DHT22;23517;50.390;8.616;2024-02-23T07:40:13;5.60;1.00
37678;DHT22;23517;50.390;8.616;2024-02-23T07:42:43;5.70;1.00
37678;DHT22;23517;50.390;8.616;2024-02-23T07:45:10;5.80;1.00
37678;DHT22;23517;50.390;8.616;2024-02-23T07:47:37;5.90;1.00
37678;DHT22;23517;50.390;8.616;2024-02-23T07:50:05;5.90;1.00
37678;DHT22;23517;50.390;8.616;2024-02-23T07:52:32;6.10;1.00
37678;DHT22;23517;50.390;8.616;2024-02-23T07:54:58;6.40;1.00
37678;DHT22;23517;50.390;8.616;2024-02-23T07:57:28;6.60;1.00
37678;DHT22;23517;50.390;8.616;2024-02-23T07:59:55;6.80;99.90
37678;DHT22;23517;50.390;8.616;2024-02-23T08:02:22;7.10;99.90
37678;DHT22;23517;50.390;8.616;2024-02-23T08:04:49;7.50;99.90
37678;DHT22;23517;50.390;8.616;2024-02-23T08:07:17;7.90;99.90
37678;DHT22;23517;50.390;8.616;2024-02-23T08:09:44;8.10;99.90
37678;DHT22;23517;50.390;8.616;2024-02-23T08:12:11;8.30;99.90
37678;DHT22;23517;50.390;8.616;2024-02-23T08:14:40;8.10;99.90
37678;DHT22;23517;50.390;8.616;2024-02-23T08:17:07;7.90;99.90
37678;DHT22;23517;50.390;8.616;2024-02-23T08:19:34;7.80;99.90
37678;DHT22;23517;50.390;8.616;2024-02-23T08:22:01;7.60;99.90
37678;DHT22;23517;50.390;8.616;2024-02-23T08:24:27;7.70;99.90
37678;DHT22;23517;50.390;8.616;2024-02-23T08:26:54;7.80;99.90
37678;DHT22;23517;50.390;8.616;2024-02-23T08:29:21;7.90;99.90
37678;DHT22;23517;50.390;8.616;2024-02-23T08:31:48;8.10;99.90
37678;DHT22;23517;50.390;8.616;2024-02-23T08:34:15;9.30;99.90
37678;DHT22;23517;50.390;8.616;2024-02-23T08:36:44;10.60;99.90
37678;DHT22;23517;50.390;8.616;2024-02-23T08:39:11;10.70;88.30
37678;DHT22;23517;50.390;8.616;2024-02-23T08:41:38;10.50;69.80
37678;DHT22;23517;50.390;8.616;2024-02-23T08:44:05;10.60;48.20
37678;DHT22;23517;50.390;8.616;2024-02-23T08:46:32;10.60;23.50
37678;DHT22;23517;50.390;8.616;2024-02-23T08:48:59;10.20;17.80
37678;DHT22;23517;50.390;8.616;2024-02-23T08:51:25;9.90;25.50
37678;DHT22;23517;50.390;8.616;2024-02-23T08:53:52;9.40;26.50
37678;DHT22;23517;50.390;8.616;2024-02-23T08:56:19;9.00;34.60
37678;DHT22;23517;50.390;8.616;2024-02-23T08:58:45;8.60;50.40
37678;DHT22;23517;50.390;8.616;2024-02-23T09:01:12;8.30;55.80
37678;DHT22;23517;50.390;8.616;2024-02-23T09:03:39;8.00;68.10
37678;DHT22;23517;50.390;8.616;2024-02-23T09:06:06;7.80;93.20
37678;DHT22;23517;50.390;8.616;2024-02-23T09:08:33;7.70;99.90
37678;DHT22;23517;50.390;8.616;2024-02-23T09:11:00;7.70;94.40
37678;DHT22;23517;50.390;8.616;2024-02-23T09:13:27;7.60;99.90
37678;DHT22;23517;50.390;8.616;2024-02-23T09:15:56;7.70;99.90
37678;DHT22;23517;50.390;8.616;2024-02-23T09:18:24;8.10;99.90
37678;DHT22;23517;50.390;8.616;2024-02-23T09:20:51;8.30;99.90
37678;DHT22;23517;50.390;8.616;2024-02-23T09:23:18;8.40;99.90
37678;DHT22;23517;50.390;8.616;2024-02-23T09:25:45;8.60;89.90
37678;DHT22;23517;50.390;8.616;2024-02-23T09:28:11;8.90;71.50
37678;DHT22;23517;50.390;8.616;2024-02-23T09:30:38;8.80;63.00
37678;DHT22;23517;50.390;8.616;2024-02-23T09:33:05;8.70;82.50
37678;DHT22;23517;50.390;8.616;2024-02-23T09:35:32;9.00;69.60
37678;DHT22;23517;50.390;8.616;2024-02-23T09:37:59;9.20;65.40
37678;DHT22;23517;50.390;8.616;2024-02-23T09:40:26;9.20;57.80
37678;DHT22;23517;50.390;8.616;2024-02-23T09:42:56;9.10;53.10
37678;DHT22;23517;50.390;8.616;2024-02-23T09:45:26;9.30;41.40
37678;DHT22;23517;50.390;8.616;2024-02-23T09:47:55;9.50;41.30
37678;DHT22;23517;50.390;8.616;2024-02-23T09:50:24;9.80;35.60
37678;DHT22;23517;50.390;8.616;2024-02-23T09:52:51;9.70;30.10
37678;DHT22;23517;50.390;8.616;2024-02-23T09:55:18;9.80;21.30
37678;DHT22;23517;50.390;8.616;2024-02-23T09:57:48;10.40;1.10
37678;DHT22;23517;50.390;8.616;2024-02-23T10:00:17;11.20;1.00
37678;DHT22;23517;50.390;8.616;2024-02-23T10:02:45;11.80;1.00
37678;DHT22;23517;50.390;8.616;2024-02-23T10:07:40;13.70;1.00
37678;DHT22;23517;50.390;8.616;2024-02-23T10:10:08;17.40;1.00
37678;DHT22;23517;50.390;8.616;2024-02-23T10:12:35;19.70;1.00
37678;DHT22;23517;50.390;8.616;2024-02-23T10:15:03;20.10;1.00
37678;DHT22;23517;50.390;8.616;2024-02-23T10:17:31;18.30;1.00
37678;DHT22;23517;50.390;8.616;2024-02-23T10:20:02;16.70;1.00
37678;DHT22;23517;50.390;8.616;2024-02-23T10:22:31;15.20;1.00
37678;DHT22;23517;50.390;8.616;2024-02-23T10:24:59;14.00;1.00
37678;DHT22;23517;50.390;8.616;2024-02-23T10:27:25;13.00;1.00
37678;DHT22;23517;50.390;8.616;2024-02-23T10:29:54;11.90;1.00
37678;DHT22;23517;50.390;8.616;2024-02-23T10:32:21;11.30;1.00
37678;DHT22;23517;50.390;8.616;2024-02-23T10:34:50;11.00;1.00
37678;DHT22;23517;50.390;8.616;2024-02-23T10:37:19;10.40;1.00
37678;DHT22;23517;50.390;8.616;2024-02-23T10:39:48;10.40;1.00
37678;DHT22;23517;50.390;8.616;2024-02-23T10:42:18;10.10;1.00
37678;DHT22;23517;50.390;8.616;2024-02-23T10:44:50;10.00;1.00
37678;DHT22;23517;50.390;8.616;2024-02-23T10:47:18;10.10;1.00
37678;DHT22;23517;50.390;8.616;2024-02-23T10:49:46;10.10;1.00
37678;DHT22;23517;50.390;8.616;2024-02-23T10:52:13;10.10;1.00
37678;DHT22;23517;50.390;8.616;2024-02-23T10:54:42;10.10;1.00
37678;DHT22;23517;50.390;8.616;2024-02-23T10:57:13;10.20;1.00
37678;DHT22;23517;50.390;8.616;2024-02-23T10:59:46;10.40;1.00
37678;DHT22;23517;50.390;8.616;2024-02-23T11:02:14;10.20;1.00
37678;DHT22;23517;50.390;8.616;2024-02-23T11:04:48;10.20;1.00
37678;DHT22;23517;50.390;8.616;2024-02-23T11:07:19;10.00;1.00
37678;DHT22;23517;50.390;8.616;2024-02-23T11:09:54;9.80;1.00
37678;DHT22;23517;50.390;8.616;2024-02-23T11:12:26;9.80;1.00
37678;DHT22;23517;50.390;8.616;2024-02-23T11:14:59;9.90;1.00
37678;DHT22;23517;50.390;8.616;2024-02-23T11:17:29;10.30;1.00
37678;DHT22;23517;50.390;8.616;2024-02-23T11:19:57;10.70;1.00
37678;DHT22;23517;50.390;8.616;2024-02-23T11:22:25;11.00;1.00
37678;DHT22;23517;50.390;8.616;2024-02-23T11:25:05;11.60;1.00
37678;DHT22;23517;50.390;8.616;2024-02-23T11:27:34;12.10;1.00
37678;DHT22;23517;50.390;8.616;2024-02-23T11:30:08;12.30;1.00
37678;DHT22;23517;50.390;8.616;2024-02-23T11:32:47;12.10;1.00
37678;DHT22;23517;50.390;8.616;2024-02-23T11:35:16;11.80;1.00
37678;DHT22;23517;50.390;8.616;2024-02-23T11:37:56;11.30;1.00
37678;DHT22;23517;50.390;8.616;2024-02-23T11:40:30;11.20;1.00
37678;DHT22;23517;50.390;8.616;2024-02-23T11:42:58;11.30;1.00
37678;DHT22;23517;50.390;8.616;2024-02-23T11:45:30;11.20;1.00
37678;DHT22;23517;50.390;8.616;2024-02-23T11:47:58;11.30;1.00
37678;DHT22;23517;50.390;8.616;2024-02-23T11:50:25;11.30;1.00
37678;DHT22;23517;50.390;8.616;2024-02-23T11:52:52;11.30;1.00
37678;DHT22;23517;50.390;8.616;2024-02-23T11:55:20;11.20;1.00
37678;DHT22;23517;50.390;8.616;2024-02-23T11:57:49;11.20;1.00
37678;DHT22;23517;50.390;8.616;2024-02-23T12:00:27;11.10;1.00
37678;DHT22;23517;50.390;8.616;2024-02-23T12:02:56;11.00;1.00
37678;DHT22;23517;50.390;8.616;2024-02-23T12:05:23;10.80;1.00
37678;DHT22;23517;50.390;8.616;2024-02-23T12:07:50;10.80;1.00
37678;DHT22;23517;50.390;8.616;2024-02-23T12:10:17;10.60;1.00
37678;DHT22;23517;50.390;8.616;2024-02-23T12:12:43;10.50;1.00
37678;DHT22;23517;50.390;8.616;2024-02-23T12:15:10;10.60;1.00
37678;DHT22;23517;50.390;8.616;2024-02-23T12:17:45;10.70;1.00
37678;DHT22;23517;50.390;8.616;2024-02-23T12:20:13;10.60;1.00
37678;DHT22;23517;50.390;8.616;2024-02-23T12:22:43;10.70;1.00
37678;DHT22;23517;50.390;8.616;2024-02-23T12:25:12;10.80;1.00
37678;DHT22;23517;50.390;8.616;2024-02-23T12:27:39;11.00;1.00
37678;DHT22;23517;50.390;8.616;2024-02-23T12:30:06;11.20;1.00
37678;DHT22;23517;50.390;8.616;2024-02-23T12:32:39;11.40;1.00
37678;DHT22;23517;50.390;8.616;2024-02-23T12:35:06;11.50;1.00
37678;DHT22;23517;50.390;8.616;2024-02-23T12:37:35;11.60;1.00
37678;DHT22;23517;50.390;8.616;2024-02-23T12:40:02;11.60;1.00
37678;DHT22;23517;50.390;8.616;2024-02-23T12:42:29;11.60;1.00
37678;DHT22;23517;50.390;8.616;2024-02-23T12:44:55;11.50;1.00
37678;DHT22;23517;50.390;8.616;2024-02-23T12:47:22;11.30;1.00
37678;DHT22;23517;50.390;8.616;2024-02-23T12:49:49;11.20;1.00
37678;DHT22;23517;50.390;8.616;2024-02-23T12:52:16;11.20;1.00
37678;DHT22;23517;50.390;8.616;2024-02-23T12:54:42;11.10;1.00
37678;DHT22;23517;50.390;8.616;2024-02-23T12:57:09;11.00;1.00
37678;DHT22;23517;50.390;8.616;2024-02-23T12:59:36;10.90;1.00
37678;DHT22;23517;50.390;8.616;2024-02-23T13:02:03;11.10;1.00
37678;DHT22;23517;50.390;8.616;2024-02-23T13:04:31;11.20;1.00
37678;DHT22;23517;50.390;8.616;2024-02-23T13:06:58;11.30;1.00
37678;DHT22;23517;50.390;8.616;2024-02-23T13:09:25;11.40;1.00
37678;DHT22;23517;50.390;8.616;2024-02-23T13:11:51;11.40;1.00
37678;DHT22;23517;50.390;8.616;2024-02-23T13:14:18;11.30;1.00
37678;DHT22;23517;50.390;8.616;2024-02-23T13:16:45;11.20;1.00
37678;DHT22;23517;50.390;8.616;2024-02-23T13:19:11;11.00;1.00
37678;DHT22;23517;50.390;8.616;2024-02-23T13:21:39;10.90;1.00
37678;DHT22;23517;50.390;8.616;2024-02-23T13:24:05;10.70;1.00
37678;DHT22;23517;50.390;8.616;2024-02-23T13:26:32;10.50;1.00
37678;DHT22;23517;50.390;8.616;2024-02-23T13:28:59;10.20;1.00
37678;DHT22;23517;50.390;8.616;2024-02-23T13:31:27;10.30;1.00
37678;DHT22;23517;50.390;8.616;2024-02-23T13:34:00;10.50;1.00
37678;DHT22;23517;50.390;8.616;2024-02-23T13:36:27;10.60;1.00
37678;DHT22;23517;50.390;8.616;2024-02-23T13:38:53;10.90;1.00
37678;DHT22;23517;50.390;8.616;2024-02-23T13:41:21;10.90;1.00
37678;DHT22;23517;50.390;8.616;2024-02-23T13:43:48;10.90;1.00
37678;DHT22;23517;50.390;8.616;2024-02-23T13:46:15;10.70;1.00
37678;DHT22;23517;50.390;8.616;2024-02-23T13:48:41;10.60;1.00
37678;DHT22;23517;50.390;8.616;2024-02-23T13:51:09;10.60;1.00
37678;DHT22;23517;50.390;8.616;2024-02-23T13:53:36;10.40;1.00
37678;DHT22;23517;50.390;8.616;2024-02-23T13:56:04;10.30;1.00
37678;DHT22;23517;50.390;8.616;2024-02-23T13:58:31;10.30;1.00
37678;DHT22;23517;50.390;8.616;2024-02-23T14:00:58;10.30;1.00
37678;DHT22;23517;50.390;8.616;2024-02-23T14:03:25;10.30;1.00
37678;DHT22;23517;50.390;8.616;2024-02-23T14:05:52;10.20;1.00
37678;DHT22;23517;50.390;8.616;2024-02-23T14:08:19;10.10;1.00
37678;DHT22;23517;50.390;8.616;2024-02-23T14:10:46;10.10;1.00
37678;DHT22;23517;50.390;8.616;2024-02-23T14:13:13;10.10;1.00
37678;DHT22;23517;50.390;8.616;2024-02-23T14:15:39;10.00;1.00
37678;DHT22;23517;50.390;8.616;2024-02-23T14:18:06;9.80;1.00
37678;DHT22;23517;50.390;8.616;2024-02-23T14:20:33;9.70;1.00
37678;DHT22;23517;50.390;8.616;2024-02-23T14:23:00;9.80;1.00
37678;DHT22;23517;50.390;8.616;2024-02-23T14:25:28;10.00;1.00
37678;DHT22;23517;50.390;8.616;2024-02-23T14:27:54;10.20;1.00
37678;DHT22;23517;50.390;8.616;2024-02-23T14:30:22;10.30;1.00
37678;DHT22;23517;50.390;8.616;2024-02-23T14:32:49;10.40;1.00
37678;DHT22;23517;50.390;8.616;2024-02-23T14:35:16;10.40;1.00
37678;DHT22;23517;50.390;8.616;2024-02-23T14:37:42;10.50;1.00
37678;DHT22;23517;50.390;8.616;2024-02-23T14:40:10;10.50;1.00
37678;DHT22;23517;50.390;8.616;2024-02-23T14:42:39;10.50;1.00
37678;DHT22;23517;50.390;8.616;2024-02-23T14:45:07;10.50;1.00
37678;DHT22;23517;50.390;8.616;2024-02-23T14:47:34;10.20;1.00
37678;DHT22;23517;50.390;8.616;2024-02-23T14:50:11;10.20;1.00
37678;DHT22;23517;50.390;8.616;2024-02-23T14:52:38;10.10;1.00
37678;DHT22;23517;50.390;8.616;2024-02-23T14:55:05;10.10;1.00
37678;DHT22;23517;50.390;8.616;2024-02-23T14:57:32;10.00;1.00
37678;DHT22;23517;50.390;8.616;2024-02-23T14:59:59;9.90;1.00
37678;DHT22;23517;50.390;8.616;2024-02-23T15:02:25;9.90;1.00
37678;DHT22;23517;50.390;8.616;2024-02-23T15:04:52;9.90;1.00
37678;DHT22;23517;50.390;8.616;2024-02-23T15:07:19;9.90;1.00
37678;DHT22;23517;50.390;8.616;2024-02-23T15:09:46;9.90;1.00
37678;DHT22;23517;50.390;8.616;2024-02-23T15:12:13;9.90;1.00
37678;DHT22;23517;50.390;8.616;2024-02-23T15:14:40;9.80;1.00
37678;DHT22;23517;50.390;8.616;2024-02-23T15:17:07;9.70;1.00
37678;DHT22;23517;50.390;8.616;2024-02-23T15:19:34;9.70;1.00
37678;DHT22;23517;50.390;8.616;2024-02-23T15:22:01;9.60;1.00
37678;DHT22;23517;50.390;8.616;2024-02-23T15:24:28;9.50;1.00
37678;DHT22;23517;50.390;8.616;2024-02-23T15:26:55;9.50;1.00
37678;DHT22;23517;50.390;8.616;2024-02-23T15:29:22;9.50;1.00
37678;DHT22;23517;50.390;8.616;2024-02-23T15:31:48;9.30;1.00
37678;DHT22;23517;50.390;8.616;2024-02-23T15:34:15;9.20;1.00
37678;DHT22;23517;50.390;8.616;2024-02-23T15:36:42;9.00;1.00
37678;DHT22;23517;50.390;8.616;2024-02-23T15:39:09;8.90;1.00
37678;DHT22;23517;50.390;8.616;2024-02-23T15:41:35;8.70;1.00
37678;DHT22;23517;50.390;8.616;2024-02-23T15:44:03;8.60;1.00
37678;DHT22;23517;50.390;8.616;2024-02-23T15:46:31;8.60;1.00
37678;DHT22;23517;50.390;8.616;2024-02-23T15:48:58;8.60;1.00
37678;DHT22;23517;50.390;8.616;2024-02-23T15:51:25;8.50;1.00